Time;durP1;ratioP1;P1;durP2;ratioP2;P2;SDS_P1;SDS_P2;PMS_P1;PMS_P2;Temp;Humidity;BMP_temperature;BMP_pressure;BME280_temperature;BME280_humidity;BME280_pressure;Samples;Min_cycle;Max_cycle;Signal;HPM_P1;HPM_P2
2023/05/12 00:02:19;;;;;;;3.70;2.08;;;;;;;;;;5064067;28;20049;-67
2023/05/12 00:04:47;;;;;;;4.15;1.90;;;;;;;;;;5065145;28;20062;-67
2023/05/12 00:07:14;;;;;;;4.35;1.70;;;;;;;;;;5066659;28;20048;-67
2023/05/12 00:09:41;;;;;;;2.67;2.00;;;;;;;;;;5063044;28;20071;-68
2023/05/12 00:12:10;;;;;;;2.65;1.92;;;;;;;;;;5064315;28;20044;-67
2023/05/12 00:14:37;;;;;;;2.50;1.70;;;;;;;;;;5067281;28;21205;-68
2023/05/12 00:17:05;;;;;;;3.38;1.80;;;;;;;;;;5068199;28;20162;-67
2023/05/12 00:19:33;;;;;;;2.67;1.77;;;;;;;;;;5066705;28;20403;-67
2023/05/12 00:22:00;;;;;;;2.45;1.30;;;;;;;;;;5068322;28;20048;-67
2023/05/12 00:24:29;;;;;;;2.50;1.20;;;;;;;;;;5067649;28;20049;-67
2023/05/12 00:26:56;;;;;;;2.80;1.40;;;;;;;;;;5067698;28;20128;-68
2023/05/12 00:29:25;;;;;;;2.67;1.60;;;;;;;;;;5068520;28;20037;-67
2023/05/12 00:31:52;;;;;;;2.72;1.70;;;;;;;;;;5066450;28;20049;-69
2023/05/12 00:34:19;;;;;;;3.53;1.80;;;;;;;;;;5068812;28;20051;-69
2023/05/12 00:36:46;;;;;;;3.03;1.88;;;;;;;;;;5066603;28;20427;-69
2023/05/12 00:39:14;;;;;;;3.35;1.50;;;;;;;;;;5072192;28;20052;-69
2023/05/12 00:41:41;;;;;;;3.40;2.00;;;;;;;;;;5071610;28;20068;-69
2023/05/12 00:44:08;;;;;;;3.95;1.70;;;;;;;;;;5072943;28;20095;-69
2023/05/12 00:46:38;;;;;;;3.65;2.10;;;;;;;;;;5071751;28;20447;-70
2023/05/12 00:49:05;;;;;;;8.45;2.22;;;;;;;;;;5072500;28;20135;-69
2023/05/12 00:51:32;;;;;;;6.75;2.97;;;;;;;;;;5071936;28;20098;-69
2023/05/12 00:54:00;;;;;;;5.68;2.88;;;;;;;;;;5072187;28;20050;-69
2023/05/12 00:56:27;;;;;;;6.13;3.15;;;;;;;;;;5071626;28;20496;-69
2023/05/12 00:58:54;;;;;;;7.63;2.90;;;;;;;;;;5072381;28;20052;-69
2023/05/12 01:01:22;;;;;;;4.55;2.80;;;;;;;;;;5070365;28;20049;-69
2023/05/12 01:03:51;;;;;;;5.95;3.10;;;;;;;;;;5064520;28;20117;-67
2023/05/12 01:06:23;;;;;;;7.47;3.30;;;;;;;;;;5073844;28;20113;-67
2023/05/12 01:08:50;;;;;;;5.68;3.40;;;;;;;;;;5067659;28;20472;-67
2023/05/12 01:11:17;;;;;;;7.63;3.35;;;;;;;;;;5073187;28;20407;-67
2023/05/12 01:13:45;;;;;;;7.05;3.40;;;;;;;;;;5072751;28;20425;-67
2023/05/12 01:16:13;;;;;;;7.75;3.55;;;;;;;;;;5068490;28;20059;-67
2023/05/12 01:18:41;;;;;;;6.85;3.60;;;;;;;;;;5072022;28;20054;-67
2023/05/12 01:21:10;;;;;;;6.13;3.97;;;;;;;;;;5073822;28;20447;-67
2023/05/12 01:23:40;;;;;;;9.98;4.45;;;;;;;;;;5071765;28;20048;-67
2023/05/12 01:26:10;;;;;;;7.57;4.10;;;;;;;;;;5069663;28;20048;-67
2023/05/12 01:28:37;;;;;;;7.47;4.70;;;;;;;;;;5069283;28;20044;-67
2023/05/12 01:31:05;;;;;;;8.38;4.97;;;;;;;;;;5068185;28;20045;-67
2023/05/12 01:33:33;;;;;;;10.70;5.50;;;;;;;;;;5070144;28;20047;-67
2023/05/12 01:36:00;;;;;;;13.80;5.18;;;;;;;;;;5072036;28;20052;-67
2023/05/12 01:38:28;;;;;;;8.73;4.97;;;;;;;;;;5065043;28;20059;-67
2023/05/12 01:40:57;;;;;;;12.15;4.93;;;;;;;;;;5071092;28;20045;-67
2023/05/12 01:43:25;;;;;;;10.60;5.63;;;;;;;;;;5069011;28;20055;-67
2023/05/12 01:45:52;;;;;;;7.85;4.95;;;;;;;;;;5071364;28;20476;-67
2023/05/12 01:48:20;;;;;;;9.68;5.38;;;;;;;;;;5068496;28;20060;-67
2023/05/12 01:50:47;;;;;;;12.75;6.78;;;;;;;;;;5070615;28;20433;-67
2023/05/12 01:53:14;;;;;;;13.50;6.35;;;;;;;;;;5071896;28;20098;-67
2023/05/12 01:55:41;;;;;;;10.65;5.20;;;;;;;;;;5068408;28;20067;-67
2023/05/12 01:58:09;;;;;;;14.82;6.15;;;;;;;;;;5063910;28;20552;-67
2023/05/12 02:00:37;;;;;;;10.25;5.10;;;;;;;;;;5065059;28;20051;-66
2023/05/12 02:03:04;;;;;;;10.68;5.82;;;;;;;;;;5065517;28;20059;-67
2023/05/12 02:05:32;;;;;;;11.93;6.00;;;;;;;;;;5067946;28;20053;-67
2023/05/12 02:07:59;;;;;;;8.63;5.05;;;;;;;;;;5070076;28;20040;-67
2023/05/12 02:10:26;;;;;;;11.55;4.82;;;;;;;;;;5069603;28;20071;-67
2023/05/12 02:12:53;;;;;;;7.07;4.40;;;;;;;;;;5068404;28;20049;-67
2023/05/12 02:15:21;;;;;;;8.00;4.70;;;;;;;;;;5070141;28;20399;-67
2023/05/12 02:17:52;;;;;;;8.32;4.70;;;;;;;;;;5069435;28;20048;-67
2023/05/12 02:20:19;;;;;;;9.52;5.03;;;;;;;;;;5068714;28;20127;-67
2023/05/12 02:22:47;;;;;;;12.45;5.35;;;;;;;;;;5069411;28;20053;-67
2023/05/12 02:25:14;;;;;;;8.45;4.78;;;;;;;;;;5069462;28;20499;-68
2023/05/12 02:27:43;;;;;;;10.82;5.30;;;;;;;;;;5067526;28;20045;-67
2023/05/12 02:30:10;;;;;;;8.52;4.97;;;;;;;;;;5069945;28;20135;-67
2023/05/12 02:32:38;;;;;;;14.60;5.63;;;;;;;;;;5068976;28;20488;-67
2023/05/12 02:35:07;;;;;;;9.82;4.97;;;;;;;;;;5069519;28;20044;-67
2023/05/12 02:37:35;;;;;;;14.07;5.45;;;;;;;;;;5064603;28;20455;-67
2023/05/12 02:40:02;;;;;;;15.88;5.60;;;;;;;;;;5064433;28;20070;-67
2023/05/12 02:42:34;;;;;;;15.40;6.20;;;;;;;;;;5068366;28;20044;-67
2023/05/12 02:45:01;;;;;;;15.15;6.10;;;;;;;;;;5063803;28;20079;-67
2023/05/12 02:47:31;;;;;;;17.08;6.13;;;;;;;;;;5069302;28;20058;-67
2023/05/12 02:49:59;;;;;;;19.90;7.45;;;;;;;;;;5068072;28;20052;-67
2023/05/12 02:52:27;;;;;;;18.67;7.90;;;;;;;;;;5058237;28;20502;-67
2023/05/12 02:54:55;;;;;;;21.85;9.07;;;;;;;;;;5062719;28;20056;-67
2023/05/12 02:57:23;;;;;;;21.95;9.77;;;;;;;;;;5070294;28;20128;-67
2023/05/12 02:59:50;;;;;;;22.92;9.07;;;;;;;;;;5068554;28;20049;-67
2023/05/12 03:02:17;;;;;;;23.83;9.35;;;;;;;;;;5068268;28;20048;-67
2023/05/12 03:04:44;;;;;;;24.52;10.00;;;;;;;;;;5067006;28;20052;-67
2023/05/12 03:07:11;;;;;;;23.45;9.00;;;;;;;;;;5067805;28;20488;-67
2023/05/12 03:09:40;;;;;;;25.60;9.45;;;;;;;;;;5064242;28;20500;-67
2023/05/12 03:12:08;;;;;;;24.20;9.13;;;;;;;;;;5063196;28;20488;-67
2023/05/12 03:14:35;;;;;;;25.63;9.88;;;;;;;;;;5061525;28;20052;-67
2023/05/12 03:17:02;;;;;;;32.50;11.10;;;;;;;;;;5068765;28;20049;-67
2023/05/12 03:19:30;;;;;;;27.00;11.00;;;;;;;;;;5069891;28;20048;-67
2023/05/12 03:21:57;;;;;;;29.92;12.15;;;;;;;;;;5071139;28;20419;-67
2023/05/12 03:24:24;;;;;;;31.30;11.05;;;;;;;;;;5067601;28;20052;-67
2023/05/12 03:26:53;;;;;;;30.42;11.55;;;;;;;;;;5071024;28;20468;-67
2023/05/12 03:29:21;;;;;;;30.17;11.50;;;;;;;;;;5068467;28;20452;-67
2023/05/12 03:31:48;;;;;;;33.10;12.02;;;;;;;;;;5067074;28;20489;-67
2023/05/12 03:34:15;;;;;;;32.60;11.48;;;;;;;;;;5067600;28;20051;-67
2023/05/12 03:36:42;;;;;;;32.60;11.23;;;;;;;;;;5070295;28;20048;-67
2023/05/12 03:39:10;;;;;;;29.27;10.90;;;;;;;;;;5069920;28;20483;-67
2023/05/12 03:41:37;;;;;;;29.63;10.98;;;;;;;;;;5069864;28;20045;-67
2023/05/12 03:44:07;;;;;;;28.73;11.18;;;;;;;;;;5068390;28;20488;-67
2023/05/12 03:46:34;;;;;;;32.85;11.23;;;;;;;;;;5067973;28;20496;-67
2023/05/12 03:49:02;;;;;;;29.13;10.45;;;;;;;;;;5062904;28;20084;-67
2023/05/12 03:51:29;;;;;;;28.90;11.00;;;;;;;;;;5068898;28;20041;-67
2023/05/12 03:53:56;;;;;;;26.30;10.77;;;;;;;;;;5064035;28;20069;-67
2023/05/12 03:56:23;;;;;;;27.80;11.23;;;;;;;;;;5068762;28;20094;-67
2023/05/12 03:58:51;;;;;;;27.25;10.45;;;;;;;;;;5063920;28;20127;-67
2023/05/12 04:01:19;;;;;;;25.88;10.65;;;;;;;;;;5063593;28;20049;-67
2023/05/12 04:03:47;;;;;;;30.83;11.00;;;;;;;;;;5065734;28;20127;-67
2023/05/12 04:06:14;;;;;;;26.20;10.40;;;;;;;;;;5064332;28;20067;-67
2023/05/12 04:08:42;;;;;;;27.35;10.63;;;;;;;;;;5068582;28;20045;-68
2023/05/12 04:11:09;;;;;;;27.20;10.35;;;;;;;;;;5064160;28;20047;-69
2023/05/12 04:13:36;;;;;;;25.05;11.60;;;;;;;;;;5062638;28;20055;-69
2023/05/12 04:16:04;;;;;;;26.95;10.48;;;;;;;;;;5066877;28;20495;-69
2023/05/12 04:18:34;;;;;;;33.85;12.15;;;;;;;;;;5062967;28;20048;-69
2023/05/12 04:21:01;;;;;;;30.08;11.10;;;;;;;;;;5064806;28;20488;-69
2023/05/12 04:23:29;;;;;;;31.77;10.63;;;;;;;;;;5063235;28;20053;-69
2023/05/12 04:25:56;;;;;;;26.50;11.40;;;;;;;;;;5065356;28;20049;-69
2023/05/12 04:28:23;;;;;;;27.63;10.88;;;;;;;;;;5065705;28;20484;-69
2023/05/12 04:30:50;;;;;;;28.88;11.50;;;;;;;;;;5066727;28;20047;-69
2023/05/12 04:33:17;;;;;;;29.55;9.98;;;;;;;;;;5067259;28;20052;-69
2023/05/12 04:35:46;;;;;;;31.85;11.00;;;;;;;;;;5070443;28;20049;-69
2023/05/12 04:38:13;;;;;;;25.65;10.05;;;;;;;;;;5066348;28;20052;-68
2023/05/12 04:40:41;;;;;;;25.45;10.63;;;;;;;;;;5067631;28;20051;-68
2023/05/12 04:43:08;;;;;;;23.05;10.68;;;;;;;;;;5067861;28;20059;-68
2023/05/12 04:45:35;;;;;;;27.63;10.25;;;;;;;;;;5064774;28;20041;-68
2023/05/12 04:48:02;;;;;;;29.88;11.70;;;;;;;;;;5062862;28;20049;-68
2023/05/12 04:50:30;;;;;;;26.98;10.52;;;;;;;;;;5068094;28;20040;-67
2023/05/12 04:52:58;;;;;;;27.55;10.35;;;;;;;;;;5065443;28;20048;-67
2023/05/12 04:55:25;;;;;;;27.08;10.88;;;;;;;;;;5064807;28;20067;-68
2023/05/12 04:57:53;;;;;;;24.50;10.30;;;;;;;;;;5064540;28;20068;-68
2023/05/12 05:00:20;;;;;;;29.65;11.23;;;;;;;;;;5062224;28;20040;-68
2023/05/12 05:02:47;;;;;;;25.70;11.23;;;;;;;;;;5062836;28;20060;-68
2023/05/12 05:05:15;;;;;;;31.75;11.18;;;;;;;;;;5065751;28;20051;-68
2023/05/12 05:07:42;;;;;;;35.00;11.38;;;;;;;;;;5066313;28;20092;-68
2023/05/12 05:10:11;;;;;;;31.33;11.05;;;;;;;;;;5067632;28;20044;-68
2023/05/12 05:12:38;;;;;;;32.53;11.93;;;;;;;;;;5066617;28;20496;-67
2023/05/12 05:15:06;;;;;;;31.63;11.68;;;;;;;;;;5069137;28;20102;-68
2023/05/12 05:17:33;;;;;;;28.20;11.68;;;;;;;;;;5065345;28;20048;-67
2023/05/12 05:20:00;;;;;;;31.92;11.65;;;;;;;;;;5066490;28;20049;-68
2023/05/12 05:22:28;;;;;;;34.40;11.65;;;;;;;;;;5068238;28;20141;-68
2023/05/12 05:24:55;;;;;;;28.13;11.27;;;;;;;;;;5071723;28;20063;-68
2023/05/12 05:27:24;;;;;;;25.45;11.77;;;;;;;;;;5070316;28;20047;-67
2023/05/12 05:29:51;;;;;;;24.77;11.00;;;;;;;;;;5071989;28;20049;-68
2023/05/12 05:32:18;;;;;;;28.92;11.55;;;;;;;;;;5071631;28;20045;-67
2023/05/12 05:34:46;;;;;;;27.33;12.23;;;;;;;;;;5071913;28;20438;-68
2023/05/12 05:37:13;;;;;;;32.15;11.50;;;;;;;;;;5071317;28;20048;-68
2023/05/12 05:39:40;;;;;;;28.45;10.45;;;;;;;;;;5072160;28;20060;-68
2023/05/12 05:42:08;;;;;;;30.15;12.20;;;;;;;;;;5069774;28;20479;-68
2023/05/12 05:44:36;;;;;;;27.15;11.38;;;;;;;;;;5064745;28;20052;-68
2023/05/12 05:47:04;;;;;;;26.60;11.20;;;;;;;;;;5067423;28;20052;-68
2023/05/12 05:49:31;;;;;;;32.28;12.18;;;;;;;;;;5068598;28;20040;-68
2023/05/12 05:51:58;;;;;;;28.23;11.85;;;;;;;;;;5067590;28;20056;-67
2023/05/12 05:54:25;;;;;;;26.52;11.27;;;;;;;;;;5068615;28;20500;-67
2023/05/12 05:56:52;;;;;;;30.83;11.85;;;;;;;;;;5068115;28;20048;-68
2023/05/12 05:59:20;;;;;;;33.10;11.73;;;;;;;;;;5067242;28;20052;-67
2023/05/12 06:01:48;;;;;;;24.20;11.10;;;;;;;;;;5068449;28;20042;-68
2023/05/12 06:04:16;;;;;;;27.50;11.65;;;;;;;;;;5062258;28;20064;-68
2023/05/12 06:06:43;;;;;;;25.92;11.73;;;;;;;;;;5063052;28;20132;-67
2023/05/12 06:09:11;;;;;;;27.65;11.63;;;;;;;;;;5062719;28;20052;-67
2023/05/12 06:11:39;;;;;;;27.45;12.98;;;;;;;;;;5064126;28;20044;-68
2023/05/12 06:14:06;;;;;;;28.65;11.52;;;;;;;;;;5070880;28;20442;-68
2023/05/12 06:16:33;;;;;;;29.58;12.02;;;;;;;;;;5069900;28;20048;-67
2023/05/12 06:19:02;;;;;;;32.03;12.27;;;;;;;;;;5067892;28;20073;-67
2023/05/12 06:21:30;;;;;;;27.10;12.13;;;;;;;;;;5072241;28;20048;-68
2023/05/12 06:23:57;;;;;;;30.27;11.95;;;;;;;;;;5067504;28;20044;-68
2023/05/12 06:26:24;;;;;;;31.70;11.55;;;;;;;;;;5058223;28;20041;-68
2023/05/12 06:28:51;;;;;;;29.00;11.65;;;;;;;;;;5067456;28;20061;-68
2023/05/12 06:31:19;;;;;;;32.30;12.48;;;;;;;;;;5065497;28;20494;-68
2023/05/12 06:33:46;;;;;;;31.70;12.32;;;;;;;;;;5064612;28;20048;-68
2023/05/12 06:36:15;;;;;;;25.45;11.30;;;;;;;;;;5066683;28;20057;-68
2023/05/12 06:38:42;;;;;;;25.13;11.52;;;;;;;;;;5063669;28;20056;-68
2023/05/12 06:41:09;;;;;;;28.70;11.70;;;;;;;;;;5067396;28;20040;-68
2023/05/12 06:43:36;;;;;;;26.88;12.10;;;;;;;;;;5070278;28;20056;-68
2023/05/12 06:46:03;;;;;;;23.10;11.18;;;;;;;;;;5068718;28;20056;-68
2023/05/12 06:48:31;;;;;;;23.90;11.43;;;;;;;;;;5067332;28;20052;-68
2023/05/12 06:50:58;;;;;;;22.90;11.70;;;;;;;;;;5064966;28;20536;-68
2023/05/12 06:53:27;;;;;;;23.92;11.48;;;;;;;;;;5070166;28;20045;-68
2023/05/12 06:55:54;;;;;;;27.33;12.02;;;;;;;;;;5063787;28;20076;-68
2023/05/12 06:58:21;;;;;;;26.83;11.43;;;;;;;;;;5066288;28;20052;-68
2023/05/12 07:00:49;;;;;;;21.52;11.00;;;;;;;;;;5059712;28;20134;-67
2023/05/12 07:03:16;;;;;;;20.75;11.45;;;;;;;;;;5068544;28;20059;-68
2023/05/12 07:05:43;;;;;;;21.77;11.15;;;;;;;;;;5063903;28;20049;-68
2023/05/12 07:08:10;;;;;;;21.65;10.77;;;;;;;;;;5072791;28;20052;-68
2023/05/12 07:10:39;;;;;;;20.23;10.88;;;;;;;;;;5068059;28;20091;-68
2023/05/12 07:13:06;;;;;;;28.13;12.23;;;;;;;;;;5067450;28;20064;-68
2023/05/12 07:15:33;;;;;;;20.58;10.95;;;;;;;;;;5066237;28;20078;-68
2023/05/12 07:18:01;;;;;;;18.63;10.70;;;;;;;;;;5068960;28;20143;-68
2023/05/12 07:20:28;;;;;;;23.65;11.52;;;;;;;;;;5066976;28;20139;-68
2023/05/12 07:22:55;;;;;;;20.13;11.63;;;;;;;;;;5069565;28;20052;-68
2023/05/12 07:25:23;;;;;;;22.48;11.35;;;;;;;;;;5069829;28;20071;-68
2023/05/12 07:27:51;;;;;;;21.38;11.45;;;;;;;;;;5069127;28;20052;-68
2023/05/12 07:30:21;;;;;;;21.10;11.90;;;;;;;;;;5067487;28;20114;-68
2023/05/12 07:32:48;;;;;;;21.10;10.23;;;;;;;;;;5069131;28;20044;-68
2023/05/12 07:35:16;;;;;;;21.05;10.82;;;;;;;;;;5068253;28;20044;-68
2023/05/12 07:37:43;;;;;;;23.08;11.63;;;;;;;;;;5069107;28;20045;-68
2023/05/12 07:40:10;;;;;;;20.20;10.82;;;;;;;;;;5067072;28;20071;-68
2023/05/12 07:42:38;;;;;;;21.17;11.07;;;;;;;;;;5070270;28;20135;-68
2023/05/12 07:45:07;;;;;;;22.20;11.30;;;;;;;;;;5065502;28;20045;-68
2023/05/12 07:47:34;;;;;;;22.00;11.07;;;;;;;;;;5065466;28;20043;-68
2023/05/12 07:50:01;;;;;;;21.35;11.18;;;;;;;;;;5067263;28;20044;-68
2023/05/12 07:52:29;;;;;;;18.85;10.95;;;;;;;;;;5064965;28;20092;-68
2023/05/12 07:54:57;;;;;;;22.83;10.80;;;;;;;;;;5069244;28;20051;-68
2023/05/12 07:57:24;;;;;;;18.52;10.60;;;;;;;;;;5066230;28;20044;-68
2023/05/12 07:59:51;;;;;;;18.05;10.43;;;;;;;;;;5070334;28;20431;-68
2023/05/12 08:02:20;;;;;;;18.85;10.07;;;;;;;;;;5057799;28;20092;-68
2023/05/12 08:04:47;;;;;;;15.15;9.80;;;;;;;;;;5067255;28;20458;-68
2023/05/12 08:07:15;;;;;;;20.02;11.27;;;;;;;;;;5071652;28;20060;-68
2023/05/12 08:09:42;;;;;;;15.57;9.70;;;;;;;;;;5077195;28;20040;-68
2023/05/12 08:12:10;;;;;;;16.75;10.27;;;;;;;;;;5068599;28;20044;-68
2023/05/12 08:14:40;;;;;;;17.83;9.90;;;;;;;;;;5066068;28;20052;-68
2023/05/12 08:17:07;;;;;;;16.63;9.52;;;;;;;;;;5067213;28;20067;-69
2023/05/12 08:19:35;;;;;;;19.02;9.52;;;;;;;;;;5062277;28;20052;-68
2023/05/12 08:22:03;;;;;;;14.35;9.32;;;;;;;;;;5068138;28;20044;-68
2023/05/12 08:24:30;;;;;;;14.80;9.80;;;;;;;;;;5067210;28;20098;-68
2023/05/12 08:26:57;;;;;;;14.98;9.15;;;;;;;;;;5068135;28;20053;-68
2023/05/12 08:29:24;;;;;;;15.75;10.40;;;;;;;;;;5067273;28;20535;-68
2023/05/12 08:31:52;;;;;;;14.63;9.30;;;;;;;;;;5066788;28;20625;-68
2023/05/12 08:34:19;;;;;;;19.48;11.30;;;;;;;;;;5059218;28;20059;-68
2023/05/12 08:36:47;;;;;;;18.70;10.57;;;;;;;;;;5067279;28;20127;-68
2023/05/12 08:39:15;;;;;;;18.65;10.50;;;;;;;;;;5068019;28;20496;-67
2023/05/12 08:41:44;;;;;;;16.85;10.13;;;;;;;;;;5066376;28;20044;-69
2023/05/12 08:44:12;;;;;;;17.20;10.60;;;;;;;;;;5067613;28;20950;-69
2023/05/12 08:46:39;;;;;;;17.30;10.88;;;;;;;;;;5066101;28;20419;-70
2023/05/12 08:49:07;;;;;;;19.67;11.30;;;;;;;;;;5065166;28;20084;-70
2023/05/12 08:51:37;;;;;;;18.10;10.77;;;;;;;;;;5071836;28;20044;-70
2023/05/12 08:54:08;;;;;;;15.48;10.80;;;;;;;;;;5067273;28;20511;-70
2023/05/12 08:56:35;;;;;;;18.73;10.85;;;;;;;;;;5068910;28;20396;-69
2023/05/12 08:59:04;;;;;;;19.23;11.55;;;;;;;;;;5067162;28;20056;-69
2023/05/12 09:01:32;;;;;;;20.27;11.52;;;;;;;;;;5063869;28;20079;-69
2023/05/12 09:03:59;;;;;;;19.45;11.95;;;;;;;;;;5069867;28;20055;-69
2023/05/12 09:06:26;;;;;;;15.43;10.48;;;;;;;;;;5071050;28;20530;-70
2023/05/12 09:08:54;;;;;;;18.85;11.65;;;;;;;;;;5074872;28;20048;-70
2023/05/12 09:11:22;;;;;;;17.73;10.90;;;;;;;;;;5071421;28;20543;-70
2023/05/12 09:13:53;;;;;;;16.02;10.68;;;;;;;;;;5071665;28;20066;-70
2023/05/12 09:16:23;;;;;;;17.13;10.85;;;;;;;;;;5071128;28;20044;-70
2023/05/12 09:18:51;;;;;;;15.05;10.52;;;;;;;;;;5070149;28;20048;-70
2023/05/12 09:21:18;;;;;;;15.25;10.18;;;;;;;;;;5072663;28;20040;-70
2023/05/12 09:23:55;;;;;;;15.73;10.75;;;;;;;;;;5071466;28;20045;-70
2023/05/12 09:26:24;;;;;;;15.35;10.52;;;;;;;;;;5072207;28;20055;-70
2023/05/12 09:28:53;;;;;;;16.88;10.43;;;;;;;;;;5068808;28;20419;-74
2023/05/12 09:31:21;;;;;;;16.38;10.55;;;;;;;;;;5071883;28;20503;-70
2023/05/12 09:33:48;;;;;;;15.35;10.60;;;;;;;;;;5068230;28;20052;-71
2023/05/12 09:36:20;;;;;;;16.42;10.57;;;;;;;;;;5072614;28;20063;-70
2023/05/12 09:38:47;;;;;;;15.75;10.27;;;;;;;;;;5071324;28;20430;-71
2023/05/12 09:41:22;;;;;;;12.95;9.75;;;;;;;;;;5066580;28;20047;-71
2023/05/12 09:43:53;;;;;;;13.65;9.88;;;;;;;;;;5069262;28;20062;-71
2023/05/12 09:46:20;;;;;;;14.52;10.40;;;;;;;;;;5064395;28;20063;-71
2023/05/12 09:48:48;;;;;;;14.13;10.20;;;;;;;;;;5071446;28;20040;-71
2023/05/12 09:51:17;;;;;;;15.65;10.80;;;;;;;;;;5067988;28;20044;-71
2023/05/12 09:53:45;;;;;;;14.63;10.15;;;;;;;;;;5065543;28;20045;-70
2023/05/12 09:56:13;;;;;;;14.60;9.98;;;;;;;;;;5070402;28;20044;-71
2023/05/12 09:58:42;;;;;;;11.80;8.95;;;;;;;;;;5071558;28;20044;-71
2023/05/12 10:01:12;;;;;;;13.57;9.95;;;;;;;;;;5066254;28;20049;-71
2023/05/12 10:03:41;;;;;;;14.35;10.52;;;;;;;;;;5070456;28;20049;-71
2023/05/12 10:06:12;;;;;;;13.80;9.48;;;;;;;;;;5066506;28;20060;-71
2023/05/12 10:08:42;;;;;;;14.07;10.23;;;;;;;;;;5067221;28;20342;-71
2023/05/12 10:11:10;;;;;;;15.05;10.85;;;;;;;;;;5066868;28;20405;-71
2023/05/12 10:13:38;;;;;;;16.25;11.05;;;;;;;;;;5069618;28;20063;-71
2023/05/12 10:16:06;;;;;;;14.30;10.10;;;;;;;;;;5067986;28;20056;-71
2023/05/12 10:18:35;;;;;;;13.98;10.85;;;;;;;;;;5072213;28;20063;-71
2023/05/12 10:21:03;;;;;;;16.63;11.18;;;;;;;;;;5068477;28;20060;-71
2023/05/12 10:23:30;;;;;;;18.33;10.90;;;;;;;;;;5066219;28;20052;-71
2023/05/12 10:26:00;;;;;;;16.55;11.40;;;;;;;;;;5070209;28;20067;-71
2023/05/12 10:28:28;;;;;;;14.45;10.80;;;;;;;;;;5069745;28;20131;-71
2023/05/12 10:30:56;;;;;;;14.25;10.32;;;;;;;;;;5069367;28;20060;-71
2023/05/12 10:33:23;;;;;;;14.27;10.23;;;;;;;;;;5066854;28;20041;-70
2023/05/12 10:35:52;;;;;;;10.57;8.05;;;;;;;;;;5069664;28;20048;-71
2023/05/12 10:38:20;;;;;;;11.13;8.75;;;;;;;;;;5066353;28;20404;-71
2023/05/12 10:40:52;;;;;;;13.05;9.23;;;;;;;;;;5068293;28;20078;-71
2023/05/12 10:43:22;;;;;;;12.05;8.50;;;;;;;;;;5069625;28;20053;-71
2023/05/12 10:46:04;;;;;;;11.88;8.32;;;;;;;;;;5065819;28;20052;-71
2023/05/12 10:48:32;;;;;;;13.43;9.07;;;;;;;;;;5065442;28;20395;-71
2023/05/12 10:51:07;;;;;;;11.43;8.13;;;;;;;;;;5069881;28;20384;-71
2023/05/12 10:53:35;;;;;;;11.40;8.00;;;;;;;;;;5068282;28;20700;-71
2023/05/12 10:56:05;;;;;;;11.30;7.50;;;;;;;;;;5069231;28;20532;-71
2023/05/12 10:58:32;;;;;;;8.05;6.20;;;;;;;;;;5069555;28;20076;-71
2023/05/12 11:01:05;;;;;;;11.35;8.38;;;;;;;;;;5065957;28;20056;-71
2023/05/12 11:03:33;;;;;;;11.10;7.82;;;;;;;;;;5065629;28;20623;-72
2023/05/12 11:06:01;;;;;;;9.15;7.30;;;;;;;;;;5063104;28;20075;-71
2023/05/12 11:08:31;;;;;;;10.00;7.28;;;;;;;;;;5071160;28;20056;-71
2023/05/12 11:10:58;;;;;;;9.50;7.60;;;;;;;;;;5069085;28;20086;-71
2023/05/12 11:13:25;;;;;;;9.60;7.28;;;;;;;;;;5065975;28;20392;-71
2023/05/12 11:15:53;;;;;;;10.27;7.88;;;;;;;;;;5066277;28;20061;-71
2023/05/12 11:18:21;;;;;;;10.27;8.27;;;;;;;;;;5071581;28;20053;-71
2023/05/12 11:20:49;;;;;;;10.93;8.32;;;;;;;;;;5070623;28;20079;-71
2023/05/12 11:23:27;;;;;;;11.80;8.75;;;;;;;;;;5067348;28;20126;-71
2023/05/12 11:25:56;;;;;;;13.02;9.13;;;;;;;;;;5069442;28;20094;-71
2023/05/12 11:28:23;;;;;;;12.15;8.48;;;;;;;;;;5067350;28;20067;-71
2023/05/12 11:30:51;;;;;;;11.15;8.23;;;;;;;;;;5070563;28;20518;-70
2023/05/12 11:33:20;;;;;;;9.07;6.97;;;;;;;;;;5078733;28;20047;-71
2023/05/12 11:35:48;;;;;;;9.93;7.55;;;;;;;;;;5068878;28;20141;-71
2023/05/12 11:38:16;;;;;;;9.73;7.72;;;;;;;;;;5067079;28;20391;-71
2023/05/12 11:40:43;;;;;;;10.95;7.85;;;;;;;;;;5068711;28;20102;-71
2023/05/12 11:43:13;;;;;;;11.38;8.10;;;;;;;;;;5066709;28;20052;-71
2023/05/12 11:45:41;;;;;;;8.20;7.40;;;;;;;;;;5065912;28;20048;-71
2023/05/12 11:48:10;;;;;;;9.90;6.97;;;;;;;;;;5064560;28;20049;-71
2023/05/12 11:50:40;;;;;;;8.18;7.35;;;;;;;;;;5065369;28;20052;-71
2023/05/12 11:53:11;;;;;;;8.15;6.85;;;;;;;;;;5069594;28;20044;-71
2023/05/12 11:55:38;;;;;;;8.05;6.40;;;;;;;;;;5068809;28;20079;-72
2023/05/12 11:58:05;;;;;;;7.22;6.07;;;;;;;;;;5072748;28;20484;-71
2023/05/12 12:00:34;;;;;;;7.53;6.78;;;;;;;;;;5067771;28;20052;-72
2023/05/12 12:03:06;;;;;;;9.88;6.50;;;;;;;;;;5066907;28;20044;-72
2023/05/12 12:05:34;;;;;;;7.60;6.80;;;;;;;;;;5066600;28;20135;-71
2023/05/12 12:08:12;;;;;;;10.50;6.82;;;;;;;;;;5065809;28;20734;-71
2023/05/12 12:10:39;;;;;;;9.00;6.57;;;;;;;;;;5069413;28;20048;-72
2023/05/12 12:13:07;;;;;;;9.43;6.13;;;;;;;;;;5066161;28;20040;-71
2023/05/12 12:15:35;;;;;;;7.03;6.30;;;;;;;;;;5067244;28;20419;-72
2023/05/12 12:18:03;;;;;;;7.45;6.30;;;;;;;;;;5067483;28;20045;-72
2023/05/12 12:20:30;;;;;;;7.45;6.40;;;;;;;;;;5065711;28;20530;-72
2023/05/12 12:22:57;;;;;;;7.38;5.75;;;;;;;;;;5077608;28;20056;-72
2023/05/12 12:25:24;;;;;;;7.88;6.40;;;;;;;;;;5071869;28;20455;-72
2023/05/12 12:27:52;;;;;;;7.80;6.38;;;;;;;;;;5063977;28;20409;-72
2023/05/12 12:30:19;;;;;;;9.55;5.85;;;;;;;;;;5065212;28;20048;-72
2023/05/12 12:32:48;;;;;;;8.05;5.97;;;;;;;;;;5067550;28;20048;-72
2023/05/12 12:35:16;;;;;;;7.20;6.10;;;;;;;;;;5067747;28;20053;-72
2023/05/12 12:37:43;;;;;;;8.20;6.45;;;;;;;;;;5072505;28;20535;-72
2023/05/12 12:40:11;;;;;;;7.20;6.20;;;;;;;;;;5070836;28;20055;-72
2023/05/12 12:42:40;;;;;;;7.95;6.18;;;;;;;;;;5071762;28;20048;-72
2023/05/12 12:45:08;;;;;;;6.45;5.85;;;;;;;;;;5070335;28;20121;-72
2023/05/12 12:47:36;;;;;;;7.97;6.07;;;;;;;;;;5069483;28;20048;-72
2023/05/12 12:50:06;;;;;;;6.68;5.88;;;;;;;;;;5071106;28;20412;-71
2023/05/12 12:52:33;;;;;;;7.03;5.65;;;;;;;;;;5068294;28;20044;-71
2023/05/12 12:55:01;;;;;;;5.55;5.03;;;;;;;;;;5074888;28;20056;-71
2023/05/12 12:57:28;;;;;;;5.85;5.25;;;;;;;;;;5068121;28;20561;-71
2023/05/12 12:59:55;;;;;;;6.63;5.75;;;;;;;;;;5069963;28;20063;-72
2023/05/12 13:02:23;;;;;;;7.10;5.13;;;;;;;;;;5074439;28;20491;-72
2023/05/12 13:04:50;;;;;;;6.90;5.82;;;;;;;;;;5066885;28;20056;-70
2023/05/12 13:07:19;;;;;;;5.80;5.20;;;;;;;;;;5072259;28;20080;-70
2023/05/12 13:09:46;;;;;;;8.52;5.57;;;;;;;;;;5069418;28;20056;-72
2023/05/12 13:12:14;;;;;;;5.68;5.07;;;;;;;;;;5070616;28;20492;-74
2023/05/12 13:14:41;;;;;;;9.45;5.70;;;;;;;;;;5068647;28;20055;-73
2023/05/12 13:17:08;;;;;;;5.85;5.25;;;;;;;;;;5069362;28;20056;-73
2023/05/12 13:19:35;;;;;;;6.00;5.40;;;;;;;;;;5062738;28;20052;-73
2023/05/12 13:22:03;;;;;;;7.18;5.00;;;;;;;;;;5072007;28;20087;-73
2023/05/12 13:24:31;;;;;;;6.32;5.25;;;;;;;;;;5063479;28;20084;-73
2023/05/12 13:26:58;;;;;;;5.78;5.18;;;;;;;;;;5070323;28;20053;-73
2023/05/12 13:29:26;;;;;;;5.93;5.15;;;;;;;;;;5069377;28;20049;-73
2023/05/12 13:31:53;;;;;;;5.80;5.20;;;;;;;;;;5070356;28;20414;-73
2023/05/12 13:34:21;;;;;;;5.65;5.05;;;;;;;;;;5069856;28;20044;-73
2023/05/12 13:36:48;;;;;;;6.25;4.72;;;;;;;;;;5068371;28;20054;-73
2023/05/12 13:39:15;;;;;;;5.50;4.85;;;;;;;;;;5069934;28;20048;-73
2023/05/12 13:41:44;;;;;;;5.80;5.20;;;;;;;;;;5067168;28;20048;-73
2023/05/12 13:44:11;;;;;;;5.88;4.97;;;;;;;;;;5079771;28;20044;-73
2023/05/12 13:46:38;;;;;;;5.38;4.85;;;;;;;;;;5070468;28;20052;-73
2023/05/12 13:49:06;;;;;;;6.10;5.07;;;;;;;;;;5068039;28;20056;-73
2023/05/12 13:51:33;;;;;;;8.32;5.30;;;;;;;;;;5075649;28;20048;-73
2023/05/12 13:54:00;;;;;;;5.35;4.78;;;;;;;;;;5068767;28;20044;-73
2023/05/12 13:56:28;;;;;;;5.88;4.75;;;;;;;;;;5068851;28;20403;-73
2023/05/12 13:58:57;;;;;;;6.32;5.65;;;;;;;;;;5065502;28;20052;-73
2023/05/12 14:01:24;;;;;;;8.05;4.80;;;;;;;;;;5065755;28;20049;-73
2023/05/12 14:03:51;;;;;;;5.47;4.93;;;;;;;;;;5068935;28;20044;-73
2023/05/12 14:06:18;;;;;;;7.35;4.63;;;;;;;;;;5066859;28;20491;-73
2023/05/12 14:08:47;;;;;;;5.57;4.70;;;;;;;;;;5069033;28;20128;-73
2023/05/12 14:11:15;;;;;;;5.57;4.18;;;;;;;;;;5066705;28;20048;-74
2023/05/12 14:13:42;;;;;;;5.40;4.60;;;;;;;;;;5069494;28;20080;-73
2023/05/12 14:16:12;;;;;;;5.53;4.38;;;;;;;;;;5072336;28;20048;-73
2023/05/12 14:18:40;;;;;;;5.28;4.78;;;;;;;;;;5064913;28;20055;-74
2023/05/12 14:21:07;;;;;;;5.82;4.20;;;;;;;;;;5069666;28;20064;-73
2023/05/12 14:23:35;;;;;;;5.10;4.20;;;;;;;;;;5070184;28;20052;-74
2023/05/12 14:26:03;;;;;;;4.70;3.88;;;;;;;;;;5069668;28;20052;-73
2023/05/12 14:28:31;;;;;;;4.40;4.00;;;;;;;;;;5068653;28;20101;-73
2023/05/12 14:30:58;;;;;;;6.78;4.10;;;;;;;;;;5070174;28;20056;-73
2023/05/12 14:33:27;;;;;;;4.55;4.15;;;;;;;;;;5068523;28;20064;-73